sensor_id;sensor_type;location;lat;lon;timestamp;temperature;humidity
40756;DHT22;26461;45.630;9.418;2023-05-16T00:02:34;18.10;99.90
40756;DHT22;26461;45.630;9.418;2023-05-16T00:05:51;18.00;99.90
40756;DHT22;26461;45.630;9.418;2023-05-16T00:09:10;18.00;99.90
40756;DHT22;26461;45.630;9.418;2023-05-16T00:12:29;18.00;99.90
40756;DHT22;26461;45.630;9.418;2023-05-16T00:15:48;18.00;99.90
40756;DHT22;26461;45.630;9.418;2023-05-16T00:19:10;18.00;99.90
40756;DHT22;26461;45.630;9.418;2023-05-16T00:22:28;17.90;99.90
40756;DHT22;26461;45.630;9.418;2023-05-16T00:25:48;17.90;99.90
40756;DHT22;26461;45.630;9.418;2023-05-16T00:29:04;17.90;99.90
40756;DHT22;26461;45.630;9.418;2023-05-16T00:32:19;17.80;99.90
40756;DHT22;26461;45.630;9.418;2023-05-16T00:35:36;17.80;99.90
40756;DHT22;26461;45.630;9.418;2023-05-16T00:38:55;17.80;99.90
40756;DHT22;26461;45.630;9.418;2023-05-16T00:42:03;17.70;99.90
40756;DHT22;26461;45.630;9.418;2023-05-16T00:45:25;17.70;99.90
40756;DHT22;26461;45.630;9.418;2023-05-16T00:48:41;17.70;99.90
40756;DHT22;26461;45.630;9.418;2023-05-16T00:52:01;17.70;99.90
40756;DHT22;26461;45.630;9.418;2023-05-16T00:55:20;17.70;99.90
40756;DHT22;26461;45.630;9.418;2023-05-16T00:58:41;17.60;99.90
40756;DHT22;26461;45.630;9.418;2023-05-16T01:01:59;17.60;99.90
40756;DHT22;26461;45.630;9.418;2023-05-16T01:05:13;17.60;99.90
40756;DHT22;26461;45.630;9.418;2023-05-16T01:08:29;17.60;99.90
40756;DHT22;26461;45.630;9.418;2023-05-16T01:15:28;17.50;99.90
40756;DHT22;26461;45.630;9.418;2023-05-16T01:18:55;17.50;99.90
40756;DHT22;26461;45.630;9.418;2023-05-16T01:22:19;17.50;99.90
40756;DHT22;26461;45.630;9.418;2023-05-16T01:25:57;17.50;99.90
40756;DHT22;26461;45.630;9.418;2023-05-16T01:29:18;17.40;99.90
40756;DHT22;26461;45.630;9.418;2023-05-16T01:32:34;17.40;99.90
40756;DHT22;26461;45.630;9.418;2023-05-16T01:35:51;17.30;99.90
40756;DHT22;26461;45.630;9.418;2023-05-16T01:39:19;17.30;99.90
40756;DHT22;26461;45.630;9.418;2023-05-16T01:42:52;17.30;99.90
40756;DHT22;26461;45.630;9.418;2023-05-16T01:46:14;17.20;99.90
40756;DHT22;26461;45.630;9.418;2023-05-16T01:49:35;17.20;99.90
40756;DHT22;26461;45.630;9.418;2023-05-16T01:53:01;17.10;99.90
40756;DHT22;26461;45.630;9.418;2023-05-16T01:56:18;17.10;99.90
40756;DHT22;26461;45.630;9.418;2023-05-16T01:59:36;17.10;99.90
40756;DHT22;26461;45.630;9.418;2023-05-16T02:02:50;17.10;99.90
40756;DHT22;26461;45.630;9.418;2023-05-16T02:06:04;17.00;99.90
40756;DHT22;26461;45.630;9.418;2023-05-16T02:09:19;17.00;99.90
40756;DHT22;26461;45.630;9.418;2023-05-16T02:12:44;17.00;99.90
40756;DHT22;26461;45.630;9.418;2023-05-16T02:16:06;17.00;99.90
40756;DHT22;26461;45.630;9.418;2023-05-16T02:19:15;17.00;99.90
40756;DHT22;26461;45.630;9.418;2023-05-16T02:22:28;17.00;99.90
40756;DHT22;26461;45.630;9.418;2023-05-16T02:25:45;17.00;99.90
40756;DHT22;26461;45.630;9.418;2023-05-16T02:29:05;17.00;99.90
40756;DHT22;26461;45.630;9.418;2023-05-16T02:32:13;17.00;99.90
40756;DHT22;26461;45.630;9.418;2023-05-16T02:35:26;17.00;99.90
40756;DHT22;26461;45.630;9.418;2023-05-16T02:38:41;16.90;99.90
40756;DHT22;26461;45.630;9.418;2023-05-16T02:42:05;16.90;99.90
40756;DHT22;26461;45.630;9.418;2023-05-16T02:45:22;16.90;99.90
40756;DHT22;26461;45.630;9.418;2023-05-16T02:48:48;16.90;99.90
40756;DHT22;26461;45.630;9.418;2023-05-16T02:52:10;16.80;99.90
40756;DHT22;26461;45.630;9.418;2023-05-16T02:55:35;16.80;99.90
40756;DHT22;26461;45.630;9.418;2023-05-16T02:58:44;16.80;99.90
40756;DHT22;26461;45.630;9.418;2023-05-16T03:02:06;16.80;99.90
40756;DHT22;26461;45.630;9.418;2023-05-16T03:05:30;16.80;99.90
40756;DHT22;26461;45.630;9.418;2023-05-16T03:08:56;16.70;99.90
40756;DHT22;26461;45.630;9.418;2023-05-16T03:12:17;16.70;99.90
40756;DHT22;26461;45.630;9.418;2023-05-16T03:15:37;16.70;99.90
40756;DHT22;26461;45.630;9.418;2023-05-16T03:18:48;16.60;99.90
40756;DHT22;26461;45.630;9.418;2023-05-16T03:21:59;16.60;99.90
40756;DHT22;26461;45.630;9.418;2023-05-16T03:25:07;16.60;99.90
40756;DHT22;26461;45.630;9.418;2023-05-16T03:28:19;16.60;99.90
40756;DHT22;26461;45.630;9.418;2023-05-16T03:31:38;16.50;99.90
40756;DHT22;26461;45.630;9.418;2023-05-16T03:34:56;16.50;99.90
40756;DHT22;26461;45.630;9.418;2023-05-16T03:38:17;16.50;99.90
40756;DHT22;26461;45.630;9.418;2023-05-16T03:41:31;16.40;99.90
40756;DHT22;26461;45.630;9.418;2023-05-16T03:44:50;16.40;99.90
40756;DHT22;26461;45.630;9.418;2023-05-16T03:47:57;16.40;99.90
40756;DHT22;26461;45.630;9.418;2023-05-16T03:51:13;16.40;99.90
40756;DHT22;26461;45.630;9.418;2023-05-16T03:54:21;16.40;99.90
40756;DHT22;26461;45.630;9.418;2023-05-16T03:57:35;16.40;99.90
40756;DHT22;26461;45.630;9.418;2023-05-16T04:00:52;16.40;99.90
40756;DHT22;26461;45.630;9.418;2023-05-16T04:04:12;16.40;99.90
40756;DHT22;26461;45.630;9.418;2023-05-16T04:07:28;16.30;99.90
40756;DHT22;26461;45.630;9.418;2023-05-16T04:10:42;16.30;99.90
40756;DHT22;26461;45.630;9.418;2023-05-16T04:14:03;16.30;99.90
40756;DHT22;26461;45.630;9.418;2023-05-16T04:17:16;16.30;99.90
40756;DHT22;26461;45.630;9.418;2023-05-16T04:20:29;16.30;99.90
40756;DHT22;26461;45.630;9.418;2023-05-16T04:23:42;16.30;99.80
40756;DHT22;26461;45.630;9.418;2023-05-16T04:26:59;16.30;99.60
40756;DHT22;26461;45.630;9.418;2023-05-16T04:30:05;16.30;99.40
40756;DHT22;26461;45.630;9.418;2023-05-16T04:33:21;16.40;99.20
40756;DHT22;26461;45.630;9.418;2023-05-16T04:36:37;16.40;99.00
40756;DHT22;26461;45.630;9.418;2023-05-16T04:39:47;16.40;98.90
40756;DHT22;26461;45.630;9.418;2023-05-16T04:43:07;16.40;98.80
40756;DHT22;26461;45.630;9.418;2023-05-16T04:46:17;16.40;98.50
40756;DHT22;26461;45.630;9.418;2023-05-16T04:49:39;16.50;98.40
40756;DHT22;26461;45.630;9.418;2023-05-16T04:52:53;16.50;98.20
40756;DHT22;26461;45.630;9.418;2023-05-16T04:56:08;16.50;98.00
40756;DHT22;26461;45.630;9.418;2023-05-16T04:59:26;16.60;98.00
40756;DHT22;26461;45.630;9.418;2023-05-16T05:02:40;16.60;97.80
40756;DHT22;26461;45.630;9.418;2023-05-16T05:05:59;16.60;97.70
40756;DHT22;26461;45.630;9.418;2023-05-16T05:09:23;16.60;97.80
40756;DHT22;26461;45.630;9.418;2023-05-16T05:12:39;16.70;97.90
40756;DHT22;26461;45.630;9.418;2023-05-16T05:15:54;16.70;97.90
40756;DHT22;26461;45.630;9.418;2023-05-16T05:19:08;16.70;97.80
40756;DHT22;26461;45.630;9.418;2023-05-16T05:22:20;16.70;97.60
40756;DHT22;26461;45.630;9.418;2023-05-16T05:25:28;16.70;97.60
40756;DHT22;26461;45.630;9.418;2023-05-16T05:28:41;16.80;97.40
40756;DHT22;26461;45.630;9.418;2023-05-16T05:31:51;16.80;97.30
40756;DHT22;26461;45.630;9.418;2023-05-16T05:35:01;16.80;97.10
40756;DHT22;26461;45.630;9.418;2023-05-16T05:38:12;16.80;97.10
40756;DHT22;26461;45.630;9.418;2023-05-16T05:41:25;16.90;97.70
40756;DHT22;26461;45.630;9.418;2023-05-16T05:44:39;16.90;98.10
40756;DHT22;26461;45.630;9.418;2023-05-16T05:47:49;16.90;98.60
40756;DHT22;26461;45.630;9.418;2023-05-16T05:51:05;16.90;98.60
40756;DHT22;26461;45.630;9.418;2023-05-16T05:54:21;16.90;98.50
40756;DHT22;26461;45.630;9.418;2023-05-16T05:57:32;16.90;98.30
40756;DHT22;26461;45.630;9.418;2023-05-16T06:00:43;17.00;98.60
40756;DHT22;26461;45.630;9.418;2023-05-16T06:03:56;17.00;98.70
40756;DHT22;26461;45.630;9.418;2023-05-16T06:07:11;17.10;99.00
40756;DHT22;26461;45.630;9.418;2023-05-16T06:10:22;17.00;98.50
40756;DHT22;26461;45.630;9.418;2023-05-16T06:13:35;17.00;98.60
40756;DHT22;26461;45.630;9.418;2023-05-16T06:16:51;17.00;98.50
40756;DHT22;26461;45.630;9.418;2023-05-16T06:20:04;17.00;98.50
40756;DHT22;26461;45.630;9.418;2023-05-16T06:23:17;17.10;98.60
40756;DHT22;26461;45.630;9.418;2023-05-16T06:26:22;17.10;98.80
40756;DHT22;26461;45.630;9.418;2023-05-16T06:29:31;17.10;98.90
40756;DHT22;26461;45.630;9.418;2023-05-16T06:32:36;17.10;99.00
40756;DHT22;26461;45.630;9.418;2023-05-16T06:35:50;17.20;99.20
40756;DHT22;26461;45.630;9.418;2023-05-16T06:39:11;17.20;99.50
40756;DHT22;26461;45.630;9.418;2023-05-16T06:42:18;17.20;99.60
40756;DHT22;26461;45.630;9.418;2023-05-16T06:45:32;17.20;99.20
40756;DHT22;26461;45.630;9.418;2023-05-16T06:48:43;17.20;99.10
40756;DHT22;26461;45.630;9.418;2023-05-16T06:52:01;17.20;99.00
40756;DHT22;26461;45.630;9.418;2023-05-16T06:55:18;17.20;98.80
40756;DHT22;26461;45.630;9.418;2023-05-16T06:58:29;17.30;98.70
40756;DHT22;26461;45.630;9.418;2023-05-16T07:01:44;17.40;98.80
40756;DHT22;26461;45.630;9.418;2023-05-16T07:04:55;17.40;98.80
40756;DHT22;26461;45.630;9.418;2023-05-16T07:08:12;17.50;99.20
40756;DHT22;26461;45.630;9.418;2023-05-16T07:11:32;17.50;99.20
40756;DHT22;26461;45.630;9.418;2023-05-16T07:14:41;17.60;99.20
40756;DHT22;26461;45.630;9.418;2023-05-16T07:17:47;17.60;99.60
40756;DHT22;26461;45.630;9.418;2023-05-16T07:21:04;17.60;99.60
40756;DHT22;26461;45.630;9.418;2023-05-16T07:24:23;17.70;99.40
40756;DHT22;26461;45.630;9.418;2023-05-16T07:27:30;17.60;99.20
40756;DHT22;26461;45.630;9.418;2023-05-16T07:30:43;17.60;99.60
40756;DHT22;26461;45.630;9.418;2023-05-16T07:34:00;17.60;99.80
40756;DHT22;26461;45.630;9.418;2023-05-16T07:37:14;17.70;99.80
40756;DHT22;26461;45.630;9.418;2023-05-16T07:40:23;17.70;99.90
40756;DHT22;26461;45.630;9.418;2023-05-16T07:43:40;17.80;99.90
40756;DHT22;26461;45.630;9.418;2023-05-16T07:46:50;17.80;99.90
40756;DHT22;26461;45.630;9.418;2023-05-16T07:50:09;17.80;99.90
40756;DHT22;26461;45.630;9.418;2023-05-16T07:53:26;17.80;99.90
40756;DHT22;26461;45.630;9.418;2023-05-16T07:56:55;17.80;99.90
40756;DHT22;26461;45.630;9.418;2023-05-16T08:00:10;17.80;99.90
40756;DHT22;26461;45.630;9.418;2023-05-16T08:03:22;17.80;99.90
40756;DHT22;26461;45.630;9.418;2023-05-16T08:06:38;17.70;99.90
40756;DHT22;26461;45.630;9.418;2023-05-16T08:09:49;17.70;99.90
40756;DHT22;26461;45.630;9.418;2023-05-16T08:13:08;17.70;99.90
40756;DHT22;26461;45.630;9.418;2023-05-16T08:16:25;17.70;99.90
40756;DHT22;26461;45.630;9.418;2023-05-16T08:19:43;17.70;99.90
40756;DHT22;26461;45.630;9.418;2023-05-16T08:23:03;17.70;99.90
40756;DHT22;26461;45.630;9.418;2023-05-16T08:26:20;17.70;99.90
40756;DHT22;26461;45.630;9.418;2023-05-16T08:29:42;17.70;99.90
40756;DHT22;26461;45.630;9.418;2023-05-16T08:32:54;17.60;99.90
40756;DHT22;26461;45.630;9.418;2023-05-16T08:36:17;17.60;99.90
40756;DHT22;26461;45.630;9.418;2023-05-16T08:39:24;17.70;99.90
40756;DHT22;26461;45.630;9.418;2023-05-16T08:42:36;17.60;99.90
40756;DHT22;26461;45.630;9.418;2023-05-16T08:45:49;17.60;99.90
40756;DHT22;26461;45.630;9.418;2023-05-16T08:49:05;17.60;99.90
40756;DHT22;26461;45.630;9.418;2023-05-16T08:52:13;17.60;99.90
40756;DHT22;26461;45.630;9.418;2023-05-16T08:55:37;17.60;99.90
40756;DHT22;26461;45.630;9.418;2023-05-16T08:59:00;17.60;99.90
40756;DHT22;26461;45.630;9.418;2023-05-16T09:02:09;17.60;99.90
40756;DHT22;26461;45.630;9.418;2023-05-16T09:05:21;17.50;99.90
40756;DHT22;26461;45.630;9.418;2023-05-16T09:08:32;17.50;99.90
40756;DHT22;26461;45.630;9.418;2023-05-16T09:11:51;17.50;99.90
40756;DHT22;26461;45.630;9.418;2023-05-16T09:15:08;17.50;99.90
40756;DHT22;26461;45.630;9.418;2023-05-16T09:18:25;17.40;99.90
40756;DHT22;26461;45.630;9.418;2023-05-16T09:21:48;17.40;99.90
40756;DHT22;26461;45.630;9.418;2023-05-16T09:25:21;17.40;99.90
40756;DHT22;26461;45.630;9.418;2023-05-16T09:28:38;17.40;99.90
40756;DHT22;26461;45.630;9.418;2023-05-16T09:32:34;17.40;99.90
40756;DHT22;26461;45.630;9.418;2023-05-16T09:35:43;17.40;99.90
40756;DHT22;26461;45.630;9.418;2023-05-16T09:38:56;17.40;99.90
40756;DHT22;26461;45.630;9.418;2023-05-16T09:42:19;17.40;99.90
40756;DHT22;26461;45.630;9.418;2023-05-16T09:45:35;17.40;99.90
40756;DHT22;26461;45.630;9.418;2023-05-16T09:48:56;17.50;99.90
40756;DHT22;26461;45.630;9.418;2023-05-16T09:52:11;17.50;99.90
40756;DHT22;26461;45.630;9.418;2023-05-16T09:55:26;17.50;99.90
40756;DHT22;26461;45.630;9.418;2023-05-16T09:58:39;17.60;99.90
40756;DHT22;26461;45.630;9.418;2023-05-16T10:01:49;17.60;99.90
40756;DHT22;26461;45.630;9.418;2023-05-16T10:05:15;17.60;99.90
40756;DHT22;26461;45.630;9.418;2023-05-16T10:08:35;17.70;99.90
40756;DHT22;26461;45.630;9.418;2023-05-16T10:11:57;17.70;99.90
40756;DHT22;26461;45.630;9.418;2023-05-16T10:15:15;17.80;99.90
40756;DHT22;26461;45.630;9.418;2023-05-16T10:18:30;17.80;99.90
40756;DHT22;26461;45.630;9.418;2023-05-16T10:21:53;17.80;99.90
40756;DHT22;26461;45.630;9.418;2023-05-16T10:25:28;17.90;99.90
40756;DHT22;26461;45.630;9.418;2023-05-16T10:28:50;17.90;99.90
40756;DHT22;26461;45.630;9.418;2023-05-16T10:32:07;17.90;99.90
40756;DHT22;26461;45.630;9.418;2023-05-16T10:35:16;17.90;99.90
40756;DHT22;26461;45.630;9.418;2023-05-16T10:38:29;17.90;99.90
40756;DHT22;26461;45.630;9.418;2023-05-16T10:41:48;17.80;99.90
40756;DHT22;26461;45.630;9.418;2023-05-16T10:45:21;17.80;99.90
40756;DHT22;26461;45.630;9.418;2023-05-16T10:48:39;17.90;99.90
40756;DHT22;26461;45.630;9.418;2023-05-16T10:52:17;17.90;99.90
40756;DHT22;26461;45.630;9.418;2023-05-16T10:55:29;17.90;99.90
40756;DHT22;26461;45.630;9.418;2023-05-16T10:58:52;18.00;99.90
40756;DHT22;26461;45.630;9.418;2023-05-16T11:02:38;18.00;99.90
40756;DHT22;26461;45.630;9.418;2023-05-16T11:05:58;18.00;99.90
40756;DHT22;26461;45.630;9.418;2023-05-16T11:09:21;18.00;99.90
40756;DHT22;26461;45.630;9.418;2023-05-16T11:12:48;18.10;99.90
40756;DHT22;26461;45.630;9.418;2023-05-16T11:16:44;18.00;99.90
40756;DHT22;26461;45.630;9.418;2023-05-16T11:20:00;18.00;99.90
40756;DHT22;26461;45.630;9.418;2023-05-16T11:26:30;18.00;99.90
40756;DHT22;26461;45.630;9.418;2023-05-16T11:29:46;18.00;99.90
40756;DHT22;26461;45.630;9.418;2023-05-16T11:33:04;17.90;99.90
40756;DHT22;26461;45.630;9.418;2023-05-16T11:36:15;17.90;99.90
40756;DHT22;26461;45.630;9.418;2023-05-16T11:39:21;17.80;99.90
40756;DHT22;26461;45.630;9.418;2023-05-16T11:42:46;17.80;99.90
40756;DHT22;26461;45.630;9.418;2023-05-16T11:45:57;17.80;99.90
40756;DHT22;26461;45.630;9.418;2023-05-16T11:49:14;17.80;99.90
40756;DHT22;26461;45.630;9.418;2023-05-16T11:52:33;17.80;99.90
40756;DHT22;26461;45.630;9.418;2023-05-16T11:55:42;17.70;99.90
40756;DHT22;26461;45.630;9.418;2023-05-16T11:58:54;17.60;99.90
40756;DHT22;26461;45.630;9.418;2023-05-16T12:02:08;17.60;99.90
40756;DHT22;26461;45.630;9.418;2023-05-16T12:05:21;17.60;99.90
40756;DHT22;26461;45.630;9.418;2023-05-16T12:08:49;17.50;99.90
40756;DHT22;26461;45.630;9.418;2023-05-16T12:12:08;17.50;99.90
40756;DHT22;26461;45.630;9.418;2023-05-16T12:15:18;17.60;99.90
40756;DHT22;26461;45.630;9.418;2023-05-16T12:18:31;17.60;99.90
40756;DHT22;26461;45.630;9.418;2023-05-16T12:21:37;17.60;99.90
40756;DHT22;26461;45.630;9.418;2023-05-16T12:24:48;17.50;99.90
40756;DHT22;26461;45.630;9.418;2023-05-16T12:28:07;17.50;99.90
40756;DHT22;26461;45.630;9.418;2023-05-16T12:31:20;17.50;99.90
40756;DHT22;26461;45.630;9.418;2023-05-16T12:34:35;17.50;99.90
40756;DHT22;26461;45.630;9.418;2023-05-16T12:37:55;17.50;99.90
40756;DHT22;26461;45.630;9.418;2023-05-16T12:41:21;17.50;99.90
40756;DHT22;26461;45.630;9.418;2023-05-16T12:44:38;17.50;99.90
40756;DHT22;26461;45.630;9.418;2023-05-16T12:47:51;17.50;99.90
40756;DHT22;26461;45.630;9.418;2023-05-16T12:51:21;17.50;99.90
40756;DHT22;26461;45.630;9.418;2023-05-16T12:54:36;17.50;99.90
40756;DHT22;26461;45.630;9.418;2023-05-16T12:57:53;17.60;99.90
40756;DHT22;26461;45.630;9.418;2023-05-16T13:01:15;17.60;99.90
40756;DHT22;26461;45.630;9.418;2023-05-16T13:04:32;17.60;99.90
40756;DHT22;26461;45.630;9.418;2023-05-16T13:07:45;17.60;99.90
40756;DHT22;26461;45.630;9.418;2023-05-16T13:11:00;17.70;99.90
40756;DHT22;26461;45.630;9.418;2023-05-16T13:14:21;17.70;99.90
40756;DHT22;26461;45.630;9.418;2023-05-16T13:17:36;17.80;99.90
40756;DHT22;26461;45.630;9.418;2023-05-16T13:20:52;17.80;99.90
40756;DHT22;26461;45.630;9.418;2023-05-16T13:24:11;17.80;99.90
40756;DHT22;26461;45.630;9.418;2023-05-16T13:27:22;17.80;99.90
40756;DHT22;26461;45.630;9.418;2023-05-16T13:30:39;17.80;99.90
40756;DHT22;26461;45.630;9.418;2023-05-16T13:33:55;17.80;99.90
40756;DHT22;26461;45.630;9.418;2023-05-16T13:37:06;17.80;99.90
40756;DHT22;26461;45.630;9.418;2023-05-16T13:40:25;17.80;99.90
40756;DHT22;26461;45.630;9.418;2023-05-16T13:43:55;17.80;99.90
40756;DHT22;26461;45.630;9.418;2023-05-16T13:47:17;17.80;99.90
40756;DHT22;26461;45.630;9.418;2023-05-16T13:50:43;17.80;99.90
40756;DHT22;26461;45.630;9.418;2023-05-16T13:54:04;17.90;99.90
40756;DHT22;26461;45.630;9.418;2023-05-16T13:57:23;18.00;99.90
40756;DHT22;26461;45.630;9.418;2023-05-16T14:00:42;18.00;99.90
40756;DHT22;26461;45.630;9.418;2023-05-16T14:04:06;18.00;99.90
40756;DHT22;26461;45.630;9.418;2023-05-16T14:07:17;18.10;99.90
40756;DHT22;26461;45.630;9.418;2023-05-16T14:10:35;18.20;99.90
40756;DHT22;26461;45.630;9.418;2023-05-16T14:13:58;18.30;99.90
40756;DHT22;26461;45.630;9.418;2023-05-16T14:17:10;18.30;99.90
40756;DHT22;26461;45.630;9.418;2023-05-16T14:20:28;18.40;99.90
40756;DHT22;26461;45.630;9.418;2023-05-16T14:23:46;18.40;99.90
40756;DHT22;26461;45.630;9.418;2023-05-16T14:26:58;18.50;99.90
40756;DHT22;26461;45.630;9.418;2023-05-16T14:30:09;18.60;99.90
40756;DHT22;26461;45.630;9.418;2023-05-16T14:33:33;18.70;99.90
40756;DHT22;26461;45.630;9.418;2023-05-16T14:36:51;18.80;99.90
40756;DHT22;26461;45.630;9.418;2023-05-16T14:40:07;18.90;99.90
40756;DHT22;26461;45.630;9.418;2023-05-16T14:43:25;19.10;99.90
40756;DHT22;26461;45.630;9.418;2023-05-16T14:46:30;19.20;99.90
40756;DHT22;26461;45.630;9.418;2023-05-16T14:49:54;19.40;99.90
40756;DHT22;26461;45.630;9.418;2023-05-16T14:53:11;19.60;99.90
40756;DHT22;26461;45.630;9.418;2023-05-16T14:56:28;19.70;99.90
40756;DHT22;26461;45.630;9.418;2023-05-16T14:59:33;19.80;99.90
40756;DHT22;26461;45.630;9.418;2023-05-16T15:02:42;19.80;99.90
40756;DHT22;26461;45.630;9.418;2023-05-16T15:05:52;19.90;99.90
40756;DHT22;26461;45.630;9.418;2023-05-16T15:09:01;19.90;99.90
40756;DHT22;26461;45.630;9.418;2023-05-16T15:12:06;19.90;99.80
40756;DHT22;26461;45.630;9.418;2023-05-16T15:15:18;19.80;99.60
40756;DHT22;26461;45.630;9.418;2023-05-16T15:18:29;19.80;99.40
40756;DHT22;26461;45.630;9.418;2023-05-16T15:21:41;19.70;99.30
40756;DHT22;26461;45.630;9.418;2023-05-16T15:24:56;19.70;99.40
40756;DHT22;26461;45.630;9.418;2023-05-16T15:28:15;19.70;99.40
40756;DHT22;26461;45.630;9.418;2023-05-16T15:31:23;19.70;99.30
40756;DHT22;26461;45.630;9.418;2023-05-16T15:34:36;19.70;99.10
40756;DHT22;26461;45.630;9.418;2023-05-16T15:37:46;19.70;99.30
40756;DHT22;26461;45.630;9.418;2023-05-16T15:40:57;19.60;99.40
40756;DHT22;26461;45.630;9.418;2023-05-16T15:44:08;19.60;99.50
40756;DHT22;26461;45.630;9.418;2023-05-16T15:47:16;19.60;99.60
40756;DHT22;26461;45.630;9.418;2023-05-16T15:50:31;19.60;99.70
40756;DHT22;26461;45.630;9.418;2023-05-16T15:53:41;19.60;99.80
40756;DHT22;26461;45.630;9.418;2023-05-16T15:56:53;19.50;99.70
40756;DHT22;26461;45.630;9.418;2023-05-16T16:00:04;19.60;99.80
40756;DHT22;26461;45.630;9.418;2023-05-16T16:03:20;19.50;99.80
40756;DHT22;26461;45.630;9.418;2023-05-16T16:06:25;19.60;99.90
40756;DHT22;26461;45.630;9.418;2023-05-16T16:09:36;19.60;99.90
40756;DHT22;26461;45.630;9.418;2023-05-16T16:13:02;19.60;99.90
40756;DHT22;26461;45.630;9.418;2023-05-16T16:16:16;19.70;99.70
40756;DHT22;26461;45.630;9.418;2023-05-16T16:19:29;19.80;99.90
40756;DHT22;26461;45.630;9.418;2023-05-16T16:22:46;19.90;99.90
40756;DHT22;26461;45.630;9.418;2023-05-16T16:25:58;19.90;99.20
40756;DHT22;26461;45.630;9.418;2023-05-16T16:29:09;19.80;98.70
40756;DHT22;26461;45.630;9.418;2023-05-16T16:32:25;19.80;98.60
40756;DHT22;26461;45.630;9.418;2023-05-16T16:35:39;19.70;98.50
40756;DHT22;26461;45.630;9.418;2023-05-16T16:38:55;19.70;98.60
40756;DHT22;26461;45.630;9.418;2023-05-16T16:42:06;19.60;99.10
40756;DHT22;26461;45.630;9.418;2023-05-16T16:45:11;19.50;99.30
40756;DHT22;26461;45.630;9.418;2023-05-16T16:48:22;19.50;99.60
40756;DHT22;26461;45.630;9.418;2023-05-16T16:51:32;19.40;99.60
40756;DHT22;26461;45.630;9.418;2023-05-16T16:54:49;19.30;99.40
40756;DHT22;26461;45.630;9.418;2023-05-16T16:58:06;19.30;99.40
40756;DHT22;26461;45.630;9.418;2023-05-16T17:01:17;19.30;99.30
40756;DHT22;26461;45.630;9.418;2023-05-16T17:04:28;19.20;99.20
40756;DHT22;26461;45.630;9.418;2023-05-16T17:07:42;19.20;99.40
40756;DHT22;26461;45.630;9.418;2023-05-16T17:10:56;19.20;99.40
40756;DHT22;26461;45.630;9.418;2023-05-16T17:14:10;19.20;99.50
40756;DHT22;26461;45.630;9.418;2023-05-16T17:17:22;19.20;99.80
40756;DHT22;26461;45.630;9.418;2023-05-16T17:20:41;19.10;99.80
40756;DHT22;26461;45.630;9.418;2023-05-16T17:23:54;19.10;99.80
40756;DHT22;26461;45.630;9.418;2023-05-16T17:27:10;19.10;99.70
40756;DHT22;26461;45.630;9.418;2023-05-16T17:30:28;19.00;99.60
40756;DHT22;26461;45.630;9.418;2023-05-16T17:33:41;19.00;99.80
40756;DHT22;26461;45.630;9.418;2023-05-16T17:36:55;19.00;99.90
40756;DHT22;26461;45.630;9.418;2023-05-16T17:40:09;19.00;99.90
40756;DHT22;26461;45.630;9.418;2023-05-16T17:43:28;19.00;99.90
40756;DHT22;26461;45.630;9.418;2023-05-16T17:46:42;18.90;99.90
40756;DHT22;26461;45.630;9.418;2023-05-16T17:49:53;18.90;99.90
40756;DHT22;26461;45.630;9.418;2023-05-16T17:53:09;18.90;99.90
40756;DHT22;26461;45.630;9.418;2023-05-16T17:56:20;18.90;99.90
40756;DHT22;26461;45.630;9.418;2023-05-16T17:59:26;18.80;99.90
40756;DHT22;26461;45.630;9.418;2023-05-16T18:02:37;18.70;99.90
40756;DHT22;26461;45.630;9.418;2023-05-16T18:05:48;18.60;99.90
40756;DHT22;26461;45.630;9.418;2023-05-16T18:09:00;18.60;99.90
40756;DHT22;26461;45.630;9.418;2023-05-16T18:12:14;18.50;99.90
40756;DHT22;26461;45.630;9.418;2023-05-16T18:15:21;18.40;99.90
40756;DHT22;26461;45.630;9.418;2023-05-16T18:18:31;18.40;99.90
40756;DHT22;26461;45.630;9.418;2023-05-16T18:21:44;18.30;99.90
40756;DHT22;26461;45.630;9.418;2023-05-16T18:24:58;18.30;99.90
40756;DHT22;26461;45.630;9.418;2023-05-16T18:28:04;18.20;99.90
40756;DHT22;26461;45.630;9.418;2023-05-16T18:31:09;18.20;99.90
40756;DHT22;26461;45.630;9.418;2023-05-16T18:34:20;18.10;99.90
40756;DHT22;26461;45.630;9.418;2023-05-16T18:37:33;18.10;99.90
40756;DHT22;26461;45.630;9.418;2023-05-16T18:40:43;18.00;99.90
40756;DHT22;26461;45.630;9.418;2023-05-16T18:43:59;18.00;99.90
40756;DHT22;26461;45.630;9.418;2023-05-16T18:47:04;18.00;99.90
40756;DHT22;26461;45.630;9.418;2023-05-16T18:50:15;18.00;99.90
40756;DHT22;26461;45.630;9.418;2023-05-16T18:53:26;17.90;99.90
40756;DHT22;26461;45.630;9.418;2023-05-16T18:56:37;17.90;99.90
40756;DHT22;26461;45.630;9.418;2023-05-16T18:59:50;17.90;99.90
40756;DHT22;26461;45.630;9.418;2023-05-16T19:03:00;17.80;99.90
40756;DHT22;26461;45.630;9.418;2023-05-16T19:06:11;17.80;99.90
40756;DHT22;26461;45.630;9.418;2023-05-16T19:09:15;17.80;99.90
40756;DHT22;26461;45.630;9.418;2023-05-16T19:12:21;17.80;99.90
40756;DHT22;26461;45.630;9.418;2023-05-16T19:15:37;17.70;99.90
40756;DHT22;26461;45.630;9.418;2023-05-16T19:18:53;17.70;99.90
40756;DHT22;26461;45.630;9.418;2023-05-16T19:22:06;17.70;99.90
40756;DHT22;26461;45.630;9.418;2023-05-16T19:25:17;17.60;99.90
40756;DHT22;26461;45.630;9.418;2023-05-16T19:28:22;17.60;99.90
40756;DHT22;26461;45.630;9.418;2023-05-16T19:31:33;17.60;99.90
40756;DHT22;26461;45.630;9.418;2023-05-16T19:34:44;17.50;99.90
40756;DHT22;26461;45.630;9.418;2023-05-16T19:37:54;17.50;99.90
40756;DHT22;26461;45.630;9.418;2023-05-16T19:41:04;17.50;99.90
40756;DHT22;26461;45.630;9.418;2023-05-16T19:44:10;17.50;99.90
40756;DHT22;26461;45.630;9.418;2023-05-16T19:47:20;17.40;99.90
40756;DHT22;26461;45.630;9.418;2023-05-16T19:50:31;17.40;99.90
40756;DHT22;26461;45.630;9.418;2023-05-16T19:53:44;17.40;99.90
40756;DHT22;26461;45.630;9.418;2023-05-16T19:56:55;17.40;99.90
40756;DHT22;26461;45.630;9.418;2023-05-16T20:00:07;17.30;99.90
40756;DHT22;26461;45.630;9.418;2023-05-16T20:03:16;17.30;99.90
40756;DHT22;26461;45.630;9.418;2023-05-16T20:06:27;17.30;99.90
40756;DHT22;26461;45.630;9.418;2023-05-16T20:09:36;17.20;99.90
40756;DHT22;26461;45.630;9.418;2023-05-16T20:12:46;17.20;99.90
40756;DHT22;26461;45.630;9.418;2023-05-16T20:15:55;17.20;99.90
40756;DHT22;26461;45.630;9.418;2023-05-16T20:19:10;17.20;99.90
40756;DHT22;26461;45.630;9.418;2023-05-16T20:22:23;17.20;99.90
40756;DHT22;26461;45.630;9.418;2023-05-16T20:25:31;17.10;99.90
40756;DHT22;26461;45.630;9.418;2023-05-16T20:28:37;17.10;99.90
40756;DHT22;26461;45.630;9.418;2023-05-16T20:31:43;17.10;99.90
40756;DHT22;26461;45.630;9.418;2023-05-16T20:34:54;17.00;99.90
40756;DHT22;26461;45.630;9.418;2023-05-16T20:38:01;17.00;99.90
40756;DHT22;26461;45.630;9.418;2023-05-16T20:41:06;17.00;99.90